createdAt,value
2019-03-30T00:01:16.466Z,2.60
2019-03-30T00:03:45.065Z,2.60
2019-03-30T00:06:13.679Z,2.50
2019-03-30T00:08:42.285Z,2.50
2019-03-30T00:11:10.738Z,2.40
2019-03-30T00:13:39.031Z,2.30
2019-03-30T00:16:07.494Z,2.30
2019-03-30T00:18:35.754Z,2.30
2019-03-30T00:21:04.178Z,2.30
2019-03-30T00:23:32.621Z,2.20
2019-03-30T00:26:01.327Z,2.20
2019-03-30T00:28:30.019Z,2.20
2019-03-30T00:30:58.692Z,2.20
2019-03-30T00:33:27.189Z,2.10
2019-03-30T00:35:57.046Z,2.10
2019-03-30T00:38:32.905Z,2.10
2019-03-30T00:41:01.584Z,2.10
2019-03-30T00:43:30.229Z,2.00
2019-03-30T00:45:58.887Z,2.10
2019-03-30T00:48:27.263Z,2.10
2019-03-30T00:50:55.710Z,2.00
2019-03-30T00:53:24.295Z,2.00
2019-03-30T00:55:52.890Z,2.10
2019-03-30T00:58:21.338Z,2.00
2019-03-30T01:00:50.220Z,2.00
2019-03-30T01:03:18.728Z,2.00
2019-03-30T01:05:47.376Z,2.00
2019-03-30T01:08:16.055Z,2.00
2019-03-30T01:10:44.704Z,2.00
2019-03-30T01:13:13.012Z,2.00
2019-03-30T01:15:41.342Z,2.00
2019-03-30T01:18:09.762Z,2.00
2019-03-30T01:20:38.282Z,2.00
2019-03-30T01:23:07.652Z,1.90
2019-03-30T01:25:36.014Z,2.00
2019-03-30T01:28:04.359Z,2.00
2019-03-30T01:30:33.064Z,2.00
2019-03-30T01:33:01.498Z,1.90
2019-03-30T01:35:31.222Z,1.90
2019-03-30T01:38:00.351Z,1.90
2019-03-30T01:40:28.809Z,1.80
2019-03-30T01:42:57.216Z,1.80
2019-03-30T01:45:25.493Z,1.80
2019-03-30T01:47:53.758Z,1.80
2019-03-30T01:50:22.061Z,1.80
2019-03-30T01:52:50.372Z,1.80
2019-03-30T01:55:21.680Z,1.80
2019-03-30T01:57:51.477Z,1.70
2019-03-30T02:00:25.224Z,1.70
2019-03-30T02:02:53.619Z,1.70
2019-03-30T02:05:21.944Z,1.70
2019-03-30T02:07:50.214Z,1.70
2019-03-30T02:10:42.821Z,1.70
2019-03-30T02:13:11.212Z,1.70
2019-03-30T02:15:39.687Z,1.70
2019-03-30T02:18:08.377Z,1.70
2019-03-30T02:20:47.190Z,1.70
2019-03-30T02:23:15.647Z,1.70
2019-03-30T02:25:43.982Z,1.70
2019-03-30T02:28:15.241Z,1.70
2019-03-30T02:30:43.862Z,1.70
2019-03-30T02:33:12.257Z,1.70
2019-03-30T02:35:40.581Z,1.70
2019-03-30T02:38:09.700Z,1.70
2019-03-30T02:40:38.067Z,1.70
2019-03-30T02:43:06.430Z,1.60
2019-03-30T02:45:35.050Z,1.60
2019-03-30T02:48:04.322Z,1.60
2019-03-30T02:50:48.535Z,1.60
2019-03-30T02:53:02.948Z,1.60
2019-03-30T02:55:31.323Z,1.50
2019-03-30T02:58:03.120Z,1.50
2019-03-30T03:00:31.470Z,1.50
2019-03-30T03:02:59.827Z,1.50
2019-03-30T03:05:28.162Z,1.50
2019-03-30T03:07:56.535Z,1.40
2019-03-30T03:10:24.928Z,1.40
2019-03-30T03:12:53.282Z,1.40
2019-03-30T03:15:21.754Z,1.40
2019-03-30T03:17:50.096Z,1.40
2019-03-30T03:20:18.486Z,1.40
2019-03-30T03:22:46.768Z,1.50
2019-03-30T03:25:15.309Z,1.50
2019-03-30T03:27:43.771Z,1.50
2019-03-30T03:30:12.149Z,1.40
2019-03-30T03:32:43.440Z,1.40
2019-03-30T03:35:12.193Z,1.30
2019-03-30T03:37:45.180Z,1.30
2019-03-30T03:40:11.410Z,1.30
2019-03-30T03:42:39.891Z,1.30
2019-03-30T03:45:08.198Z,1.30
2019-03-30T03:47:37.057Z,1.30
2019-03-30T03:50:06.312Z,1.20
2019-03-30T03:52:35.131Z,1.20
2019-03-30T03:55:03.815Z,1.30
2019-03-30T03:57:33.495Z,1.30
2019-03-30T04:00:01.936Z,1.30
2019-03-30T04:02:33.627Z,1.30
2019-03-30T04:05:02.088Z,1.30
2019-03-30T04:07:30.973Z,1.30
2019-03-30T04:10:00.867Z,1.20
2019-03-30T04:12:29.407Z,1.10
2019-03-30T04:15:00.758Z,1.10
2019-03-30T04:17:29.290Z,1.10
2019-03-30T04:19:57.690Z,1.20
2019-03-30T04:22:26.649Z,1.20
2019-03-30T04:24:55.166Z,1.20
2019-03-30T04:27:23.586Z,1.20
2019-03-30T04:29:51.962Z,1.20
2019-03-30T04:32:20.409Z,1.20
2019-03-30T04:34:48.830Z,1.30
2019-03-30T04:37:17.162Z,1.30
2019-03-30T04:39:45.576Z,1.30
2019-03-30T04:42:14.675Z,1.20
2019-03-30T04:44:43.054Z,1.30
2019-03-30T04:47:11.699Z,1.40
2019-03-30T04:49:40.099Z,1.50
2019-03-30T04:52:08.487Z,1.70
2019-03-30T04:54:36.990Z,1.90
2019-03-30T04:57:05.311Z,2.10
2019-03-30T04:59:33.758Z,2.30
2019-03-30T05:02:02.252Z,2.50
2019-03-30T05:04:30.529Z,2.80
2019-03-30T05:06:58.820Z,3.20
2019-03-30T05:09:27.225Z,3.60
2019-03-30T05:11:55.828Z,4.00
2019-03-30T05:14:26.800Z,4.40
2019-03-30T05:16:55.158Z,4.80
2019-03-30T05:19:23.570Z,5.00
2019-03-30T05:21:51.983Z,5.20
2019-03-30T05:24:20.567Z,5.30
2019-03-30T05:26:48.960Z,5.30
2019-03-30T05:29:17.320Z,5.30
2019-03-30T05:31:53.363Z,5.50
2019-03-30T05:34:20.584Z,5.60
2019-03-30T05:36:49.001Z,5.90
2019-03-30T05:39:17.445Z,6.10
2019-03-30T05:41:45.916Z,6.40
2019-03-30T05:44:16.854Z,6.80
2019-03-30T05:46:45.791Z,7.30
2019-03-30T05:49:14.154Z,7.60
2019-03-30T05:51:42.411Z,8.00
2019-03-30T05:54:10.811Z,8.30
2019-03-30T05:56:39.635Z,8.90
2019-03-30T05:59:08.089Z,9.60
2019-03-30T06:01:36.493Z,10.30
2019-03-30T06:04:04.959Z,11.20
2019-03-30T06:06:33.421Z,11.80
2019-03-30T06:09:01.845Z,12.00
2019-03-30T06:11:30.286Z,12.60
2019-03-30T06:13:58.775Z,13.20
2019-03-30T06:16:27.276Z,13.60
2019-03-30T06:18:55.722Z,14.20
2019-03-30T06:21:24.133Z,14.50
2019-03-30T06:23:52.546Z,14.80
2019-03-30T06:26:21.175Z,14.70
2019-03-30T06:28:50.948Z,14.80
2019-03-30T06:31:19.489Z,15.30
2019-03-30T06:33:47.869Z,15.90
2019-03-30T06:36:16.266Z,16.30
2019-03-30T06:38:44.638Z,17.10
2019-03-30T06:41:13.202Z,17.50
2019-03-30T06:43:41.532Z,17.80
2019-03-30T06:46:10.658Z,18.40
2019-03-30T06:48:38.929Z,19.10
2019-03-30T06:51:07.302Z,19.50
2019-03-30T06:53:39.111Z,19.80
2019-03-30T06:56:07.818Z,20.30
2019-03-30T06:58:36.301Z,20.60
2019-03-30T07:01:04.875Z,21.30
2019-03-30T07:03:33.294Z,21.60
2019-03-30T07:06:01.886Z,21.00
2019-03-30T07:08:30.306Z,21.30
2019-03-30T07:10:58.842Z,21.20
2019-03-30T07:13:27.301Z,21.30
2019-03-30T07:15:56.033Z,21.30
2019-03-30T07:18:24.388Z,21.50
2019-03-30T07:20:53.020Z,22.00
2019-03-30T07:23:21.387Z,22.50
2019-03-30T07:25:49.787Z,22.80
2019-03-30T07:28:18.167Z,22.70
2019-03-30T07:30:46.538Z,23.00
2019-03-30T07:33:15.106Z,23.00
2019-03-30T07:35:43.696Z,23.70
2019-03-30T07:38:12.081Z,23.90
2019-03-30T07:40:40.475Z,23.80
2019-03-30T07:43:09.029Z,24.10
2019-03-30T07:45:37.371Z,24.30
2019-03-30T07:48:06.594Z,24.00
2019-03-30T07:50:35.058Z,23.70
2019-03-30T07:53:03.488Z,24.30
2019-03-30T07:55:31.998Z,23.80
2019-03-30T07:58:00.744Z,24.10
2019-03-30T08:00:30.862Z,24.50
2019-03-30T08:02:59.834Z,24.10
2019-03-30T08:05:28.332Z,24.80
2019-03-30T08:07:56.757Z,25.10
2019-03-30T08:10:25.396Z,25.60
2019-03-30T08:12:53.880Z,25.50
2019-03-30T08:15:22.318Z,25.60
2019-03-30T08:17:52.271Z,26.00
2019-03-30T08:20:20.558Z,26.00
2019-03-30T08:22:49.082Z,25.70
2019-03-30T08:25:17.544Z,25.90
2019-03-30T08:27:45.942Z,26.20
2019-03-30T08:30:15.801Z,26.70
2019-03-30T08:32:45.791Z,27.20
2019-03-30T08:35:14.112Z,27.70
2019-03-30T08:37:42.437Z,28.00
2019-03-30T08:40:10.858Z,28.20
2019-03-30T08:42:39.338Z,28.20
2019-03-30T08:45:08.327Z,28.90
2019-03-30T08:47:37.310Z,29.30
2019-03-30T08:50:08.311Z,29.10
2019-03-30T08:52:37.407Z,28.40
2019-03-30T08:55:07.476Z,28.30
2019-03-30T08:57:36.059Z,27.90
2019-03-30T09:00:05.527Z,28.10
2019-03-30T09:02:33.948Z,28.80
2019-03-30T09:05:02.662Z,29.00
2019-03-30T09:07:31.195Z,29.80
2019-03-30T09:10:00.117Z,29.70
2019-03-30T09:12:28.630Z,28.70
2019-03-30T09:14:56.944Z,28.30
2019-03-30T09:17:25.434Z,28.30
2019-03-30T09:19:56.772Z,28.10
2019-03-30T09:22:25.130Z,28.50
2019-03-30T09:24:53.536Z,28.70
2019-03-30T09:27:21.863Z,29.40
2019-03-30T09:29:50.307Z,29.20
2019-03-30T09:32:18.778Z,28.50
2019-03-30T09:34:47.394Z,28.50
2019-03-30T09:37:15.866Z,28.10
2019-03-30T09:39:44.414Z,28.80
2019-03-30T09:42:12.781Z,28.50
2019-03-30T09:44:41.074Z,29.00
2019-03-30T09:47:09.364Z,30.10
2019-03-30T09:49:37.656Z,30.60
2019-03-30T09:52:06.752Z,30.40
2019-03-30T09:54:35.044Z,29.50
2019-03-30T09:57:03.307Z,30.00
2019-03-30T09:59:31.572Z,30.00
2019-03-30T10:01:59.887Z,29.90
2019-03-30T10:04:28.181Z,30.50
2019-03-30T10:06:56.643Z,30.20
2019-03-30T10:09:25.323Z,29.70
2019-03-30T10:11:53.688Z,28.60
2019-03-30T10:14:21.966Z,28.40
2019-03-30T10:16:50.315Z,28.50
2019-03-30T10:19:18.579Z,29.00
2019-03-30T10:21:46.847Z,29.10
2019-03-30T10:24:15.127Z,29.40
2019-03-30T10:26:43.422Z,29.90
2019-03-30T10:29:11.815Z,29.20
2019-03-30T10:31:40.258Z,28.80
2019-03-30T10:34:08.605Z,28.30
2019-03-30T10:36:36.921Z,28.60
2019-03-30T10:39:07.311Z,28.10
2019-03-30T10:41:35.671Z,28.10
2019-03-30T10:44:05.555Z,28.60
2019-03-30T10:46:34.113Z,28.70
2019-03-30T10:49:02.479Z,28.50
2019-03-30T10:51:31.203Z,28.70
2019-03-30T10:53:59.611Z,28.60
2019-03-30T10:56:28.068Z,28.40
2019-03-30T10:58:56.548Z,28.50
2019-03-30T11:01:24.871Z,28.50
2019-03-30T11:03:53.337Z,29.00
2019-03-30T11:06:21.785Z,29.70
2019-03-30T11:08:50.235Z,29.80
2019-03-30T11:11:18.769Z,29.30
2019-03-30T11:13:47.149Z,29.60
2019-03-30T11:16:15.519Z,28.20
2019-03-30T11:18:43.878Z,28.10
2019-03-30T11:21:12.271Z,28.40
2019-03-30T11:23:40.680Z,28.70
2019-03-30T11:26:08.946Z,28.90
2019-03-30T11:28:37.414Z,28.80
2019-03-30T11:31:05.791Z,29.30
2019-03-30T11:33:34.211Z,29.40
2019-03-30T11:36:02.561Z,29.60
2019-03-30T11:38:30.955Z,29.20
2019-03-30T11:40:59.499Z,29.30
2019-03-30T11:43:27.758Z,29.10
2019-03-30T11:45:56.112Z,28.40
2019-03-30T11:48:31.683Z,28.30
2019-03-30T11:51:00.154Z,28.10
2019-03-30T11:53:28.440Z,28.00
2019-03-30T11:55:56.863Z,27.80
2019-03-30T11:58:25.245Z,27.50
2019-03-30T12:00:55.707Z,27.70
2019-03-30T12:03:23.968Z,27.40
2019-03-30T12:05:52.472Z,26.90
2019-03-30T12:08:20.834Z,26.50
2019-03-30T12:10:49.315Z,26.10
2019-03-30T12:13:17.830Z,26.00
2019-03-30T12:15:46.393Z,25.80
2019-03-30T12:18:14.726Z,25.90
2019-03-30T12:20:43.119Z,25.80
2019-03-30T12:23:11.376Z,25.40
2019-03-30T12:25:39.671Z,24.70
2019-03-30T12:28:08.253Z,24.90
2019-03-30T12:30:36.768Z,24.80
2019-03-30T12:33:05.291Z,24.50
2019-03-30T12:35:33.853Z,24.50
2019-03-30T12:38:02.414Z,24.40
2019-03-30T12:40:31.002Z,24.30
2019-03-30T12:42:59.262Z,23.80
2019-03-30T12:45:27.614Z,23.70
2019-03-30T12:47:56.378Z,23.20
2019-03-30T12:50:24.777Z,22.80
2019-03-30T12:52:53.263Z,22.50
2019-03-30T12:55:21.706Z,22.40
2019-03-30T12:57:50.449Z,22.00
2019-03-30T13:00:18.916Z,21.80
2019-03-30T13:02:47.393Z,21.50
2019-03-30T13:05:15.746Z,21.30
2019-03-30T13:07:44.083Z,21.10
2019-03-30T13:10:12.376Z,20.90
2019-03-30T13:12:40.964Z,20.90
2019-03-30T13:15:09.225Z,20.70
2019-03-30T13:17:37.490Z,20.50
2019-03-30T13:20:06.806Z,20.10
2019-03-30T13:22:35.068Z,20.10
2019-03-30T13:25:03.898Z,19.80
2019-03-30T13:27:32.176Z,19.80
2019-03-30T13:30:00.495Z,19.70
2019-03-30T13:35:33.057Z,19.70
2019-03-30T13:38:01.567Z,19.60
2019-03-30T13:40:29.827Z,19.40
2019-03-30T13:42:58.083Z,19.40
2019-03-30T13:45:26.388Z,19.40
2019-03-30T13:47:54.709Z,19.40
2019-03-30T13:50:22.994Z,19.20
2019-03-30T13:52:51.291Z,19.20
2019-03-30T13:55:19.618Z,19.10
2019-03-30T13:57:47.974Z,19.10
2019-03-30T14:00:17.168Z,19.10
2019-03-30T14:02:45.429Z,19.00
2019-03-30T14:05:13.876Z,18.70
2019-03-30T14:07:42.163Z,18.70
2019-03-30T14:10:10.482Z,18.70
2019-03-30T14:12:38.811Z,18.70
2019-03-30T14:15:09.362Z,18.70
2019-03-30T14:17:37.288Z,18.70
2019-03-30T14:20:07.198Z,18.60
2019-03-30T14:22:36.026Z,18.50
2019-03-30T14:25:06.819Z,18.60
2019-03-30T14:27:35.317Z,18.50
2019-03-30T14:30:04.431Z,18.50
2019-03-30T14:32:32.777Z,18.50
2019-03-30T14:35:01.108Z,18.50
2019-03-30T14:37:32.338Z,18.40
2019-03-30T14:40:00.679Z,18.30
2019-03-30T14:42:28.942Z,18.20
2019-03-30T14:44:57.526Z,18.10
2019-03-30T14:47:25.834Z,18.00
2019-03-30T14:49:54.157Z,17.90
2019-03-30T14:52:22.443Z,17.80
2019-03-30T14:54:52.990Z,17.80
2019-03-30T14:57:20.097Z,17.70
2019-03-30T14:59:48.555Z,17.70
2019-03-30T15:02:17.810Z,17.70
2019-03-30T15:04:46.240Z,17.70
2019-03-30T15:07:14.808Z,17.70
2019-03-30T15:09:43.259Z,17.70
2019-03-30T15:12:11.619Z,17.70
2019-03-30T15:14:40.368Z,17.70
2019-03-30T15:17:08.743Z,17.70
2019-03-30T15:19:37.243Z,17.60
2019-03-30T15:22:05.669Z,17.60
2019-03-30T15:24:34.053Z,17.50
2019-03-30T15:27:02.354Z,17.50
2019-03-30T15:29:30.691Z,17.40
2019-03-30T15:31:59.030Z,17.40
2019-03-30T15:34:27.426Z,17.40
2019-03-30T15:36:55.875Z,17.40
2019-03-30T15:39:24.330Z,17.30
2019-03-30T15:41:52.777Z,17.20
2019-03-30T15:44:21.336Z,17.20
2019-03-30T15:46:49.681Z,17.10
2019-03-30T15:49:17.995Z,17.00
2019-03-30T15:51:46.410Z,17.00
2019-03-30T15:54:14.799Z,16.90
2019-03-30T15:56:43.213Z,16.90
2019-03-30T15:59:11.661Z,16.90
2019-03-30T16:01:40.018Z,16.80
2019-03-30T16:04:09.784Z,16.70
2019-03-30T16:06:38.177Z,16.60
2019-03-30T16:09:07.059Z,16.50
2019-03-30T16:11:35.465Z,16.50
2019-03-30T16:14:03.806Z,16.40
2019-03-30T16:16:32.154Z,16.30
2019-03-30T16:19:00.715Z,16.20
2019-03-30T16:21:29.184Z,16.10
2019-03-30T16:23:57.533Z,16.10
2019-03-30T16:26:25.884Z,16.00
2019-03-30T16:28:54.298Z,15.90
2019-03-30T16:31:22.617Z,15.80
2019-03-30T16:33:50.982Z,15.60
2019-03-30T16:36:19.272Z,15.50
2019-03-30T16:38:47.907Z,15.50
2019-03-30T16:41:16.267Z,15.40
2019-03-30T16:43:44.651Z,15.30
2019-03-30T16:46:13.007Z,15.10
2019-03-30T16:48:41.405Z,15.00
2019-03-30T16:51:09.843Z,14.90
2019-03-30T16:53:38.474Z,14.70
2019-03-30T16:56:06.837Z,14.50
2019-03-30T16:58:35.241Z,14.20
2019-03-30T17:01:03.570Z,13.90
2019-03-30T17:03:31.822Z,13.70
2019-03-30T17:06:00.942Z,13.50
2019-03-30T17:08:29.542Z,13.30
2019-03-30T17:10:57.887Z,13.10
2019-03-30T17:13:26.258Z,12.90
2019-03-30T17:15:58.269Z,12.70
2019-03-30T17:18:24.164Z,12.60
2019-03-30T17:20:52.622Z,12.50
2019-03-30T17:23:21.152Z,12.30
2019-03-30T17:25:49.679Z,12.30
2019-03-30T17:28:18.202Z,12.20
2019-03-30T17:30:46.593Z,12.10
2019-03-30T17:33:14.870Z,12.10
2019-03-30T17:35:43.178Z,12.10
2019-03-30T17:38:11.727Z,11.90
2019-03-30T17:40:40.415Z,11.70
2019-03-30T17:43:10.834Z,11.50
2019-03-30T17:45:39.206Z,11.30
2019-03-30T17:48:07.953Z,11.20
2019-03-30T17:50:36.358Z,11.20
2019-03-30T17:53:05.230Z,11.10
2019-03-30T17:55:34.380Z,11.10
2019-03-30T17:58:12.805Z,11.00
2019-03-30T18:00:33.029Z,11.00
2019-03-30T18:03:01.703Z,10.90
2019-03-30T18:05:33.248Z,10.80
2019-03-30T18:08:01.886Z,10.70
2019-03-30T18:10:29.788Z,10.60
2019-03-30T18:12:58.161Z,10.50
2019-03-30T18:15:26.876Z,10.50
2019-03-30T18:17:56.876Z,10.50
2019-03-30T18:20:25.426Z,10.40
2019-03-30T18:22:53.826Z,10.30
2019-03-30T18:25:22.933Z,10.20
2019-03-30T18:27:51.352Z,10.10
2019-03-30T18:30:25.721Z,10.10
2019-03-30T18:32:54.123Z,10.10
2019-03-30T18:35:22.407Z,10.00
2019-03-30T18:37:50.681Z,10.00
2019-03-30T18:40:30.528Z,9.90
2019-03-30T18:42:59.542Z,9.90
2019-03-30T18:45:28.687Z,9.80
2019-03-30T18:48:11.277Z,9.90
2019-03-30T18:50:40.398Z,9.90
2019-03-30T18:53:09.015Z,9.90
2019-03-30T18:55:37.509Z,9.90
2019-03-30T18:58:06.338Z,9.80
2019-03-30T19:00:34.673Z,9.60
2019-03-30T19:03:03.254Z,9.60
2019-03-30T19:05:31.577Z,9.60
2019-03-30T19:07:59.864Z,9.60
2019-03-30T19:10:29.015Z,9.60
2019-03-30T19:12:57.579Z,9.60
2019-03-30T19:15:25.980Z,9.60
2019-03-30T19:17:54.417Z,9.50
2019-03-30T19:20:37.759Z,9.50
2019-03-30T19:23:05.401Z,9.30
2019-03-30T19:25:33.882Z,9.10
2019-03-30T19:28:02.282Z,8.90
2019-03-30T19:30:30.658Z,8.70
2019-03-30T19:32:59.088Z,8.60
2019-03-30T19:35:27.464Z,8.50
2019-03-30T19:38:01.409Z,8.40
2019-03-30T19:40:29.510Z,8.30
2019-03-30T19:42:57.785Z,8.20
2019-03-30T19:45:26.074Z,8.20
2019-03-30T19:47:54.496Z,8.20
2019-03-30T19:50:22.867Z,8.20
2019-03-30T19:52:51.707Z,8.20
2019-03-30T19:55:20.196Z,8.10
2019-03-30T19:57:48.532Z,8.10
2019-03-30T20:00:17.024Z,8.10
2019-03-30T20:02:45.465Z,8.00
2019-03-30T20:05:14.419Z,8.10
2019-03-30T20:07:42.856Z,8.10
2019-03-30T20:10:14.267Z,8.10
2019-03-30T20:12:43.460Z,8.00
2019-03-30T20:15:12.035Z,8.00
2019-03-30T20:17:40.439Z,8.00
2019-03-30T20:20:08.712Z,7.90
2019-03-30T20:22:37.047Z,7.80
2019-03-30T20:25:07.603Z,7.70
2019-03-30T20:27:35.881Z,7.70
2019-03-30T20:30:07.383Z,7.60
2019-03-30T20:32:35.660Z,7.70
2019-03-30T20:35:07.866Z,7.70
2019-03-30T20:37:36.258Z,7.70
2019-03-30T20:40:07.916Z,7.70
2019-03-30T20:42:36.536Z,7.60
2019-03-30T20:45:08.139Z,7.60
2019-03-30T20:47:36.540Z,7.60
2019-03-30T20:50:06.051Z,7.60
2019-03-30T20:52:41.151Z,7.60
2019-03-30T20:55:10.902Z,7.60
2019-03-30T20:57:39.248Z,7.50
2019-03-30T21:00:10.395Z,7.40
2019-03-30T21:02:39.135Z,7.40
2019-03-30T21:05:07.561Z,7.50
2019-03-30T21:07:35.979Z,7.40
2019-03-30T21:10:07.623Z,7.40
2019-03-30T21:12:35.971Z,7.40
2019-03-30T21:15:06.409Z,7.30
2019-03-30T21:17:35.086Z,7.20
2019-03-30T21:20:04.862Z,7.10
2019-03-30T21:22:33.168Z,7.00
2019-03-30T21:25:01.564Z,7.00
2019-03-30T21:27:29.916Z,6.90
2019-03-30T21:29:59.977Z,6.90
2019-03-30T21:32:29.943Z,6.90
2019-03-30T21:34:57.864Z,6.70
2019-03-30T21:37:26.173Z,6.60
2019-03-30T21:39:55.279Z,6.50
2019-03-30T21:42:23.643Z,6.50
2019-03-30T21:44:51.926Z,6.50
2019-03-30T21:47:20.357Z,6.50
2019-03-30T21:49:48.736Z,6.40
2019-03-30T21:52:17.095Z,6.30
2019-03-30T21:54:45.392Z,6.30
2019-03-30T21:57:13.682Z,6.20
2019-03-30T21:59:41.962Z,6.20
2019-03-30T22:02:10.284Z,6.20
2019-03-30T22:04:38.669Z,6.20
2019-03-30T22:07:07.021Z,6.10
2019-03-30T22:09:35.427Z,6.00
2019-03-30T22:12:03.933Z,6.10
2019-03-30T22:14:32.370Z,6.00
2019-03-30T22:17:01.095Z,6.10
2019-03-30T22:19:29.794Z,6.10
2019-03-30T22:21:58.332Z,6.00
2019-03-30T22:24:26.723Z,6.00
2019-03-30T22:26:55.288Z,5.90
2019-03-30T22:29:23.564Z,5.80
2019-03-30T22:31:52.220Z,5.70
2019-03-30T22:34:20.579Z,5.70
2019-03-30T22:36:49.049Z,5.70
2019-03-30T22:39:17.400Z,5.70
2019-03-30T22:41:45.746Z,5.70
2019-03-30T22:44:14.145Z,5.70
2019-03-30T22:46:42.899Z,5.60
2019-03-30T22:49:11.156Z,5.60
2019-03-30T22:51:39.603Z,5.60
2019-03-30T22:54:08.027Z,5.60
2019-03-30T22:56:36.319Z,5.60
2019-03-30T22:59:04.924Z,5.60
2019-03-30T23:01:40.334Z,5.60
2019-03-30T23:04:08.703Z,5.60
2019-03-30T23:06:37.205Z,5.60
2019-03-30T23:09:06.355Z,5.70
2019-03-30T23:11:34.769Z,5.60
2019-03-30T23:14:03.169Z,5.60
2019-03-30T23:16:38.427Z,5.60
2019-03-30T23:19:08.499Z,5.70
2019-03-30T23:21:37.176Z,5.70
2019-03-30T23:24:05.741Z,5.70
2019-03-30T23:26:34.354Z,5.70
2019-03-30T23:29:02.871Z,5.60
2019-03-30T23:31:31.334Z,5.50
2019-03-30T23:33:59.720Z,5.50
2019-03-30T23:36:28.458Z,5.50
2019-03-30T23:38:58.696Z,5.40
2019-03-30T23:41:28.821Z,5.40
2019-03-30T23:43:57.358Z,5.30
2019-03-30T23:46:25.690Z,5.30
2019-03-30T23:48:54.058Z,5.30
2019-03-30T23:51:22.496Z,5.30
2019-03-30T23:53:50.817Z,5.20
2019-03-30T23:56:23.331Z,5.30
2019-03-30T23:58:51.950Z,5.20
